Time;durP1;ratioP1;P1;durP2;ratioP2;P2;SDS_P1;SDS_P2;PMS_P1;PMS_P2;Temp;Humidity;BMP_temperature;BMP_pressure;BME280_temperature;BME280_humidity;BME280_pressure;Samples;Min_cycle;Max_cycle;Signal;HPM_P1;HPM_P2
2021/10/23 00:01:40;;;;;;;16.23;8.95;;;14.00;58.50;;;;;;4985754;28;20018;-54
2021/10/23 00:04:06;;;;;;;15.52;9.15;;;14.00;58.40;;;;;;4992676;28;20038;-54
2021/10/23 00:06:31;;;;;;;14.45;9.75;;;13.90;58.30;;;;;;4992973;28;20023;-54
2021/10/23 00:08:57;;;;;;;14.85;9.77;;;13.90;58.30;;;;;;4993024;28;20474;-53
2021/10/23 00:11:22;;;;;;;14.63;9.98;;;13.90;58.10;;;;;;4992885;28;20031;-53
2021/10/23 00:13:49;;;;;;;14.15;9.52;;;13.90;58.00;;;;;;4990634;28;20026;-55
2021/10/23 00:16:14;;;;;;;14.15;9.13;;;13.80;57.90;;;;;;4980426;28;20034;-55
2021/10/23 00:18:40;;;;;;;12.98;8.40;;;13.80;58.50;;;;;;4980114;28;20439;-54
2021/10/23 00:21:06;;;;;;;14.00;8.85;;;13.80;57.90;;;;;;4992919;28;20520;-54
2021/10/23 00:23:31;;;;;;;13.48;8.40;;;13.80;58.00;;;;;;4992716;28;20467;-56
2021/10/23 00:25:57;;;;;;;13.77;9.27;;;13.70;57.90;;;;;;4992808;28;20077;-55
2021/10/23 00:28:23;;;;;;;12.55;8.30;;;13.70;58.00;;;;;;4992935;28;20026;-56
2021/10/23 00:30:49;;;;;;;12.13;8.88;;;13.70;58.00;;;;;;4992772;28;20482;-54
2021/10/23 00:33:14;;;;;;;15.23;9.20;;;13.70;57.90;;;;;;4992698;28;20088;-55
2021/10/23 00:35:40;;;;;;;15.45;9.13;;;13.70;57.80;;;;;;4988012;28;20082;-54
2021/10/23 00:38:06;;;;;;;14.73;8.82;;;13.80;57.70;;;;;;4992244;28;20438;-55
2021/10/23 00:40:31;;;;;;;14.48;9.38;;;13.70;57.80;;;;;;4992592;28;20034;-56
2021/10/23 00:42:59;;;;;;;16.85;10.23;;;13.70;57.80;;;;;;4992464;28;20141;-55
2021/10/23 00:45:25;;;;;;;15.15;9.15;;;13.70;57.90;;;;;;4992290;28;20032;-53
2021/10/23 00:47:51;;;;;;;14.25;9.77;;;13.70;57.80;;;;;;4992293;28;20030;-56
2021/10/23 00:50:16;;;;;;;17.75;9.75;;;13.70;57.70;;;;;;4990284;28;20026;-54
2021/10/23 00:52:42;;;;;;;16.90;9.90;;;13.70;57.80;;;;;;4989265;28;20134;-53
2021/10/23 00:55:09;;;;;;;13.35;9.10;;;13.70;57.80;;;;;;4990858;28;20019;-56
2021/10/23 00:57:35;;;;;;;13.18;8.90;;;13.70;57.70;;;;;;4995956;28;20019;-54
2021/10/23 01:00:00;;;;;;;15.90;10.48;;;13.70;57.80;;;;;;4995742;28;20026;-53
2021/10/23 01:02:26;;;;;;;17.02;10.07;;;13.70;57.80;;;;;;4995858;28;20026;-54
2021/10/23 01:04:52;;;;;;;15.95;10.45;;;13.70;57.80;;;;;;4995642;28;20093;-55
2021/10/23 01:07:18;;;;;;;13.10;9.02;;;13.70;57.80;;;;;;4995764;28;20577;-55
2021/10/23 01:09:44;;;;;;;14.18;8.85;;;13.70;57.80;;;;;;4995133;28;20061;-55
2021/10/23 01:12:13;;;;;;;14.63;8.60;;;13.70;57.80;;;;;;4995630;28;20034;-54
2021/10/23 01:14:44;;;;;;;14.93;9.02;;;13.60;57.80;;;;;;4988512;28;20026;-53
2021/10/23 01:17:09;;;;;;;12.10;7.93;;;13.70;57.90;;;;;;4994992;28;20117;-55
2021/10/23 01:19:36;;;;;;;13.13;8.93;;;13.70;57.80;;;;;;4995535;28;20113;-53
2021/10/23 01:22:02;;;;;;;15.10;7.82;;;13.60;57.80;;;;;;4980693;28;20518;-55
2021/10/23 01:24:29;;;;;;;14.07;9.57;;;13.60;57.70;;;;;;4994949;28;20058;-55
2021/10/23 01:26:54;;;;;;;14.93;9.13;;;13.60;57.70;;;;;;4995108;28;20026;-55
2021/10/23 01:29:21;;;;;;;14.02;8.73;;;13.60;57.70;;;;;;4995294;28;20380;-55
2021/10/23 01:31:49;;;;;;;12.70;7.50;;;13.60;57.60;;;;;;4995514;28;20037;-53
2021/10/23 01:34:21;;;;;;;13.82;8.18;;;13.60;57.50;;;;;;4982110;28;20026;-55
2021/10/23 01:36:49;;;;;;;13.18;8.13;;;13.60;57.40;;;;;;4995316;28;20096;-55
2021/10/23 01:39:15;;;;;;;10.50;7.13;;;13.60;57.40;;;;;;4983256;28;20525;-53
2021/10/23 01:41:41;;;;;;;13.75;8.23;;;13.60;57.50;;;;;;4993064;28;20050;-53
2021/10/23 01:44:09;;;;;;;11.15;7.97;;;13.60;57.30;;;;;;4994007;28;20034;-55
2021/10/23 01:46:35;;;;;;;12.60;8.45;;;13.60;57.20;;;;;;4994795;28;20034;-54
2021/10/23 01:49:01;;;;;;;11.60;7.57;;;13.70;57.20;;;;;;4994736;28;20074;-54
2021/10/23 01:51:28;;;;;;;12.27;8.60;;;13.70;57.20;;;;;;4995197;28;20026;-53
2021/10/23 01:53:54;;;;;;;14.07;8.55;;;13.60;57.10;;;;;;4985371;28;20030;-55
2021/10/23 01:56:20;;;;;;;11.32;8.10;;;13.70;57.20;;;;;;4995021;28;20031;-55
2021/10/23 01:58:46;;;;;;;15.43;8.73;;;13.60;57.10;;;;;;4994139;28;20504;-53
2021/10/23 02:01:11;;;;;;;12.50;8.43;;;13.60;57.10;;;;;;4994855;28;20486;-55
2021/10/23 02:03:37;;;;;;;15.32;9.55;;;13.70;57.20;;;;;;4994836;28;20022;-54
2021/10/23 02:06:07;;;;;;;14.63;10.85;;;13.60;57.10;;;;;;4994617;28;20542;-55
2021/10/23 02:08:32;;;;;;;17.17;10.88;;;13.60;57.10;;;;;;4994154;28;20030;-53
2021/10/23 02:10:58;;;;;;;22.98;10.48;;;13.70;57.10;;;;;;4994842;28;20375;-54
2021/10/23 02:13:24;;;;;;;15.18;9.93;;;13.60;57.20;;;;;;4994366;28;20510;-55
2021/10/23 02:15:49;;;;;;;13.75;8.90;;;13.60;57.10;;;;;;4992716;28;20033;-55
2021/10/23 02:18:15;;;;;;;13.20;8.15;;;13.60;57.10;;;;;;4994326;28;20027;-56
2021/10/23 02:20:40;;;;;;;14.45;9.15;;;13.60;57.10;;;;;;4989672;28;20101;-55
2021/10/23 02:23:06;;;;;;;13.80;8.45;;;13.60;57.10;;;;;;4992140;28;20435;-55
2021/10/23 02:25:32;;;;;;;11.68;7.40;;;13.70;57.00;;;;;;4994600;28;20014;-55
2021/10/23 02:27:57;;;;;;;12.65;6.60;;;13.60;56.90;;;;;;4994334;28;20109;-53
2021/10/23 02:30:23;;;;;;;10.32;6.72;;;13.60;56.60;;;;;;4986377;28;20050;-53
2021/10/23 02:32:49;;;;;;;7.75;5.68;;;13.60;56.60;;;;;;4994211;28;20427;-53
2021/10/23 02:35:14;;;;;;;8.55;5.45;;;13.60;56.50;;;;;;4994016;28;20030;-55
2021/10/23 02:37:40;;;;;;;7.85;4.90;;;13.60;56.50;;;;;;4993846;28;20101;-56
2021/10/23 02:40:06;;;;;;;7.22;5.20;;;13.60;56.50;;;;;;4995861;28;20105;-53
2021/10/23 02:42:32;;;;;;;10.35;5.13;;;13.60;56.40;;;;;;4993970;28;20034;-53
2021/10/23 02:44:57;;;;;;;7.50;5.30;;;13.60;56.40;;;;;;4992203;28;20382;-53
2021/10/23 02:47:23;;;;;;;7.25;5.28;;;13.60;56.30;;;;;;4991612;28;20033;-55
2021/10/23 02:49:49;;;;;;;7.43;4.97;;;13.60;56.20;;;;;;4993363;28;20060;-54
2021/10/23 02:52:14;;;;;;;8.63;5.10;;;13.60;56.30;;;;;;4992888;28;20029;-55
2021/10/23 02:54:40;;;;;;;6.47;4.45;;;13.70;56.30;;;;;;4992852;28;20058;-56
2021/10/23 02:57:06;;;;;;;5.68;4.47;;;13.60;56.20;;;;;;4993832;28;20478;-55
2021/10/23 02:59:31;;;;;;;8.05;4.47;;;13.60;56.20;;;;;;4993665;28;20386;-54
2021/10/23 03:01:57;;;;;;;6.30;3.97;;;13.70;56.20;;;;;;4993244;28;20094;-53
2021/10/23 03:04:23;;;;;;;5.90;4.00;;;13.70;56.30;;;;;;4991979;28;20029;-55
2021/10/23 03:06:48;;;;;;;8.20;5.00;;;13.70;56.20;;;;;;4993493;28;20018;-53
2021/10/23 03:09:15;;;;;;;5.30;3.80;;;13.70;56.10;;;;;;4993598;28;20073;-54
2021/10/23 03:11:41;;;;;;;5.78;4.07;;;13.80;56.40;;;;;;4993442;28;20037;-55
2021/10/23 03:14:07;;;;;;;4.38;3.60;;;13.80;56.20;;;;;;4993138;28;20058;-53
2021/10/23 03:16:33;;;;;;;6.28;3.75;;;13.80;56.10;;;;;;4987098;28;20493;-53
2021/10/23 03:18:59;;;;;;;7.40;4.30;;;13.80;56.20;;;;;;4990370;28;20030;-55
2021/10/23 03:21:24;;;;;;;6.07;4.25;;;13.80;56.00;;;;;;4990623;28;20028;-56
2021/10/23 03:23:50;;;;;;;5.90;4.32;;;13.80;55.90;;;;;;4979839;28;20031;-55
2021/10/23 03:26:16;;;;;;;8.43;5.03;;;13.80;55.90;;;;;;4991169;28;20029;-53
2021/10/23 03:28:42;;;;;;;6.07;4.63;;;13.80;55.80;;;;;;4992731;28;20034;-56
2021/10/23 03:31:07;;;;;;;7.32;4.72;;;13.80;55.90;;;;;;4992817;28;20026;-53
2021/10/23 03:33:34;;;;;;;6.57;4.35;;;13.80;55.90;;;;;;4992882;28;20109;-55
2021/10/23 03:35:59;;;;;;;8.07;5.00;;;13.80;55.90;;;;;;4993022;28;20030;-55
2021/10/23 03:38:25;;;;;;;6.22;4.45;;;13.80;55.90;;;;;;4991864;28;20084;-56
2021/10/23 03:40:50;;;;;;;6.40;4.03;;;13.70;55.80;;;;;;4993593;28;20347;-54
2021/10/23 03:43:16;;;;;;;6.45;3.70;;;13.70;55.90;;;;;;4992998;28;20026;-54
2021/10/23 03:45:42;;;;;;;7.35;4.35;;;13.80;55.90;;;;;;4993211;28;20158;-53
2021/10/23 03:48:07;;;;;;;7.60;4.18;;;13.70;55.90;;;;;;4993610;28;20066;-53
2021/10/23 03:50:33;;;;;;;8.00;4.78;;;13.70;55.80;;;;;;4993474;28;20050;-54
2021/10/23 03:52:59;;;;;;;6.57;3.90;;;13.80;56.00;;;;;;4990473;28;20058;-54
2021/10/23 03:55:25;;;;;;;6.25;4.25;;;13.70;56.00;;;;;;4982939;28;20018;-53
2021/10/23 03:57:50;;;;;;;5.75;3.97;;;13.70;56.10;;;;;;4993339;28;20113;-55
2021/10/23 04:00:16;;;;;;;6.35;4.22;;;13.70;56.10;;;;;;4993484;28;20054;-54
2021/10/23 04:02:42;;;;;;;5.72;3.70;;;13.60;56.10;;;;;;4993161;28;20022;-56
2021/10/23 04:05:08;;;;;;;6.65;4.57;;;13.60;56.20;;;;;;4993301;28;20019;-54
2021/10/23 04:07:34;;;;;;;5.78;4.25;;;13.60;56.30;;;;;;4993510;28;20026;-55
2021/10/23 04:10:01;;;;;;;6.03;4.45;;;13.60;56.50;;;;;;4992651;28;20042;-56
2021/10/23 04:12:27;;;;;;;7.20;4.85;;;13.50;56.50;;;;;;4993358;28;20035;-54
2021/10/23 04:14:53;;;;;;;6.07;4.00;;;13.40;56.40;;;;;;4992768;28;20026;-54
2021/10/23 04:17:19;;;;;;;5.80;3.97;;;13.40;56.50;;;;;;4993619;28;20121;-56
2021/10/23 04:19:44;;;;;;;5.60;4.18;;;13.40;56.40;;;;;;4992888;28;20015;-55
2021/10/23 04:22:10;;;;;;;7.88;4.40;;;13.40;56.50;;;;;;4975739;28;20360;-55
2021/10/23 04:24:36;;;;;;;6.72;4.57;;;13.40;56.60;;;;;;4979809;28;20027;-55
2021/10/23 04:27:02;;;;;;;6.38;4.00;;;13.40;56.50;;;;;;4993401;28;20037;-55
2021/10/23 04:29:28;;;;;;;7.50;4.80;;;13.40;56.40;;;;;;4993058;28;20018;-53
2021/10/23 04:31:54;;;;;;;8.45;5.70;;;13.40;56.50;;;;;;4996615;28;20053;-54
2021/10/23 04:34:20;;;;;;;9.00;4.53;;;13.40;56.50;;;;;;4996902;28;20031;-55
2021/10/23 04:36:45;;;;;;;8.43;5.72;;;13.40;56.50;;;;;;4996959;28;20033;-56
2021/10/23 04:39:11;;;;;;;8.98;5.20;;;13.40;56.40;;;;;;4979280;28;20490;-53
2021/10/23 04:41:37;;;;;;;8.50;5.28;;;13.40;56.40;;;;;;4994910;28;20050;-56
2021/10/23 04:44:03;;;;;;;8.18;4.78;;;13.40;56.40;;;;;;4996577;28;20080;-56
2021/10/23 04:46:29;;;;;;;6.80;4.93;;;13.30;56.40;;;;;;4996303;28;20033;-55
2021/10/23 04:48:54;;;;;;;7.13;5.40;;;13.30;56.40;;;;;;4996776;28;20026;-56
2021/10/23 04:51:20;;;;;;;7.65;4.95;;;13.30;56.40;;;;;;4993350;28;20123;-55
2021/10/23 04:53:45;;;;;;;8.10;5.18;;;13.30;56.50;;;;;;4990996;28;20026;-55
2021/10/23 04:56:11;;;;;;;10.68;5.63;;;13.30;56.50;;;;;;4996408;28;20022;-56
2021/10/23 04:58:38;;;;;;;7.75;5.05;;;13.30;56.50;;;;;;4991022;28;20109;-56
2021/10/23 05:01:04;;;;;;;9.88;5.53;;;13.30;56.50;;;;;;4995046;28;20112;-56
2021/10/23 05:03:29;;;;;;;7.55;5.03;;;13.30;56.60;;;;;;4997107;28;20022;-56
2021/10/23 05:05:55;;;;;;;9.60;4.95;;;13.20;56.60;;;;;;4996418;28;20045;-55
2021/10/23 05:08:21;;;;;;;6.63;4.40;;;13.20;56.50;;;;;;4996723;28;20026;-55
2021/10/23 05:10:47;;;;;;;6.10;4.50;;;13.20;56.60;;;;;;4996069;28;20084;-55
2021/10/23 05:13:13;;;;;;;7.35;4.43;;;13.20;56.60;;;;;;4996594;28;20030;-54
2021/10/23 05:15:39;;;;;;;7.95;4.55;;;13.20;56.60;;;;;;4991038;28;20118;-56
2021/10/23 05:18:04;;;;;;;7.32;5.13;;;13.30;56.50;;;;;;4996083;28;20033;-53
2021/10/23 05:20:31;;;;;;;8.05;5.60;;;13.30;56.50;;;;;;4983640;28;20022;-53
2021/10/23 05:22:56;;;;;;;9.63;5.07;;;13.30;56.60;;;;;;4990030;28;20027;-53
2021/10/23 05:25:22;;;;;;;10.30;5.88;;;13.30;56.80;;;;;;4987867;28;20109;-56
2021/10/23 05:27:48;;;;;;;10.68;5.35;;;13.30;56.80;;;;;;4995631;28;20360;-54
2021/10/23 05:30:13;;;;;;;10.23;6.10;;;13.30;56.90;;;;;;4995856;28;20459;-55
2021/10/23 05:32:39;;;;;;;10.50;5.45;;;13.40;57.00;;;;;;4984906;28;20498;-56
2021/10/23 05:35:05;;;;;;;8.57;6.10;;;13.40;56.90;;;;;;4995710;28;20054;-55
2021/10/23 05:37:31;;;;;;;7.93;5.55;;;13.40;56.90;;;;;;4996112;28;20053;-56
2021/10/23 05:39:57;;;;;;;7.60;5.35;;;13.50;56.90;;;;;;4994427;28;20080;-55
2021/10/23 05:42:22;;;;;;;7.95;5.80;;;13.50;56.90;;;;;;4988378;28;20026;-55
2021/10/23 05:44:48;;;;;;;9.65;6.65;;;13.60;56.90;;;;;;4995481;28;20030;-53
2021/10/23 05:47:14;;;;;;;9.68;6.22;;;13.60;56.90;;;;;;4995789;28;20034;-53
2021/10/23 05:49:40;;;;;;;9.25;6.63;;;13.70;56.80;;;;;;4995588;28;20029;-55
2021/10/23 05:52:06;;;;;;;10.93;6.55;;;13.70;56.80;;;;;;4995839;28;20032;-54
2021/10/23 05:54:38;;;;;;;10.38;6.60;;;13.70;56.70;;;;;;4995531;28;20105;-56
2021/10/23 05:57:08;;;;;;;13.27;7.10;;;13.80;56.60;;;;;;4987774;28;20038;-55
2021/10/23 05:59:37;;;;;;;9.25;6.53;;;13.80;56.50;;;;;;4992611;28;20392;-53
2021/10/23 06:02:21;;;;;;;11.02;6.05;;;13.80;56.40;;;;;;4995575;28;20026;-53
2021/10/23 06:04:48;;;;;;;10.63;6.85;;;13.80;56.30;;;;;;4995202;28;20018;-55
2021/10/23 06:07:14;;;;;;;9.43;6.22;;;13.80;56.20;;;;;;4995557;28;20054;-53
2021/10/23 06:09:40;;;;;;;8.40;5.75;;;13.80;56.20;;;;;;4995686;28;20359;-55
2021/10/23 06:12:06;;;;;;;9.07;5.90;;;13.90;56.20;;;;;;4995216;28;20076;-54
2021/10/23 06:14:32;;;;;;;9.70;6.40;;;13.90;56.10;;;;;;4994383;28;20034;-55
2021/10/23 06:16:57;;;;;;;12.80;6.35;;;13.90;56.00;;;;;;4995045;28;20096;-56
2021/10/23 06:19:23;;;;;;;8.60;5.72;;;13.90;56.00;;;;;;4993815;28;20026;-55
2021/10/23 06:21:48;;;;;;;9.15;6.57;;;13.90;56.00;;;;;;4982678;28;20023;-53
2021/10/23 06:24:14;;;;;;;9.07;6.00;;;13.90;55.90;;;;;;4995107;28;20026;-56
2021/10/23 06:26:40;;;;;;;9.98;5.85;;;13.90;55.80;;;;;;4995149;28;20026;-55
2021/10/23 06:29:05;;;;;;;8.65;5.60;;;13.90;55.80;;;;;;4995094;28;20084;-54
2021/10/23 06:31:31;;;;;;;9.20;5.75;;;13.90;55.80;;;;;;4990926;28;20105;-53
2021/10/23 06:33:57;;;;;;;9.23;5.60;;;13.90;55.70;;;;;;4989910;28;20049;-53
2021/10/23 06:36:22;;;;;;;7.03;4.93;;;13.90;55.60;;;;;;4991424;28;20038;-53
2021/10/23 06:38:48;;;;;;;7.88;5.65;;;13.90;55.60;;;;;;4992550;28;20046;-55
2021/10/23 06:41:14;;;;;;;9.43;5.20;;;13.90;55.60;;;;;;4993551;28;20022;-55
2021/10/23 06:43:40;;;;;;;9.68;5.53;;;13.90;55.60;;;;;;4993035;28;20041;-53
2021/10/23 06:46:05;;;;;;;8.88;5.03;;;13.90;55.50;;;;;;4981513;28;20031;-53
2021/10/23 06:48:31;;;;;;;13.40;6.03;;;13.90;55.60;;;;;;4983976;28;20034;-54
2021/10/23 06:50:57;;;;;;;7.20;4.85;;;13.90;55.40;;;;;;4994222;28;20109;-55
2021/10/23 06:53:22;;;;;;;8.77;4.78;;;13.90;55.20;;;;;;4984814;28;20038;-55
2021/10/23 06:55:48;;;;;;;12.70;5.05;;;13.90;55.30;;;;;;4992408;28;20034;-56
2021/10/23 06:58:13;;;;;;;9.93;6.10;;;13.90;55.30;;;;;;4993358;28;20037;-53
2021/10/23 07:00:39;;;;;;;9.95;5.72;;;13.90;55.30;;;;;;4989355;28;20056;-54
2021/10/23 07:03:05;;;;;;;9.73;5.85;;;13.90;55.40;;;;;;4990956;28;20097;-53
2021/10/23 07:05:31;;;;;;;9.75;6.30;;;13.90;55.60;;;;;;4985659;28;20054;-53
2021/10/23 07:07:58;;;;;;;9.00;6.22;;;13.90;56.30;;;;;;4988709;28;20033;-55
2021/10/23 07:10:23;;;;;;;8.77;6.63;;;14.00;55.80;;;;;;4993284;28;20030;-56
2021/10/23 07:12:51;;;;;;;8.77;5.60;;;14.00;55.90;;;;;;4993812;28;20101;-57
2021/10/23 07:15:16;;;;;;;10.25;6.78;;;13.90;55.80;;;;;;4993981;28;20018;-53
2021/10/23 07:17:42;;;;;;;7.68;5.78;;;13.90;56.00;;;;;;4993748;28;20080;-55
2021/10/23 07:20:09;;;;;;;8.52;5.55;;;13.90;56.00;;;;;;4992057;28;20441;-53
2021/10/23 07:22:35;;;;;;;10.60;6.10;;;13.90;55.90;;;;;;4993753;28;20034;-55
2021/10/23 07:25:02;;;;;;;10.57;6.55;;;13.90;55.90;;;;;;4981173;28;20026;-55
2021/10/23 07:27:27;;;;;;;9.88;6.28;;;13.90;56.10;;;;;;4993762;28;20022;-55
2021/10/23 07:29:53;;;;;;;10.80;7.00;;;13.90;56.00;;;;;;4980169;28;20529;-55
2021/10/23 07:32:19;;;;;;;9.52;6.07;;;13.90;56.00;;;;;;4994042;28;20464;-53
2021/10/23 07:34:44;;;;;;;9.32;6.40;;;13.90;56.00;;;;;;4993539;28;20073;-53
2021/10/23 07:37:10;;;;;;;9.68;6.25;;;13.90;56.20;;;;;;4992841;28;20092;-55
2021/10/23 07:39:36;;;;;;;9.77;6.47;;;13.90;56.40;;;;;;4988187;28;20500;-53
2021/10/23 07:42:03;;;;;;;10.10;6.93;;;13.90;56.50;;;;;;4993649;28;20010;-54
2021/10/23 07:44:29;;;;;;;11.07;7.13;;;13.90;56.70;;;;;;4993987;28;20022;-56
2021/10/23 07:46:55;;;;;;;12.50;7.40;;;13.90;57.00;;;;;;4983708;28;20076;-55
2021/10/23 07:49:21;;;;;;;11.57;6.35;;;13.90;57.00;;;;;;4993928;28;20030;-53
2021/10/23 07:51:47;;;;;;;11.60;6.53;;;13.90;57.30;;;;;;4993282;28;20030;-55
2021/10/23 07:54:12;;;;;;;10.55;6.15;;;13.90;57.20;;;;;;4992428;28;20041;-53
2021/10/23 07:56:42;;;;;;;10.57;6.18;;;13.90;57.30;;;;;;4993440;28;20080;-53
2021/10/23 07:59:08;;;;;;;9.30;6.18;;;13.90;57.30;;;;;;4993396;28;20128;-55
2021/10/23 08:01:34;;;;;;;8.43;5.57;;;13.90;57.10;;;;;;4991534;28;20050;-55
2021/10/23 08:04:00;;;;;;;10.25;5.60;;;14.00;57.10;;;;;;4993584;28;20459;-56
2021/10/23 08:06:27;;;;;;;10.55;6.03;;;14.00;56.90;;;;;;4998516;28;20577;-54
2021/10/23 08:08:52;;;;;;;10.68;6.22;;;14.10;56.80;;;;;;4999681;28;20113;-55
2021/10/23 08:11:18;;;;;;;10.90;5.85;;;14.10;56.60;;;;;;4992547;28;20065;-53
2021/10/23 08:13:44;;;;;;;10.68;6.57;;;14.20;56.40;;;;;;5000194;28;20105;-53
2021/10/23 08:16:10;;;;;;;9.98;5.85;;;14.20;56.30;;;;;;4999500;28;20467;-56
2021/10/23 08:18:35;;;;;;;10.50;6.22;;;14.20;56.20;;;;;;4996176;28;20034;-54
2021/10/23 08:21:02;;;;;;;9.65;5.55;;;14.30;56.00;;;;;;4986416;28;20018;-56
2021/10/23 08:23:28;;;;;;;9.85;6.07;;;14.30;56.00;;;;;;4999389;28;20117;-54
2021/10/23 08:25:54;;;;;;;9.45;5.05;;;14.30;55.90;;;;;;4986369;28;20073;-54
2021/10/23 08:28:22;;;;;;;7.60;5.22;;;14.40;55.60;;;;;;4994857;28;20114;-55
2021/10/23 08:30:48;;;;;;;12.50;6.03;;;14.40;55.60;;;;;;4999236;28;20081;-54
2021/10/23 08:33:14;;;;;;;8.60;5.82;;;14.40;55.40;;;;;;4997590;28;20042;-55
2021/10/23 08:35:39;;;;;;;8.18;5.50;;;14.50;55.50;;;;;;4999562;28;20060;-53
2021/10/23 08:38:05;;;;;;;8.13;5.28;;;14.50;55.60;;;;;;4999587;28;20106;-55
2021/10/23 08:40:31;;;;;;;10.35;5.93;;;14.60;55.40;;;;;;4999593;28;20046;-55
2021/10/23 08:42:57;;;;;;;10.63;6.30;;;14.60;55.20;;;;;;4999623;28;20034;-56
2021/10/23 08:45:23;;;;;;;7.88;5.60;;;14.60;54.80;;;;;;4999053;28;20034;-53
2021/10/23 08:47:49;;;;;;;9.23;5.63;;;14.60;54.30;;;;;;4998953;28;20030;-56
2021/10/23 08:50:19;;;;;;;8.18;4.88;;;14.60;53.90;;;;;;4991703;28;20547;-56
2021/10/23 08:52:47;;;;;;;9.30;5.10;;;14.60;53.60;;;;;;4995388;28;20030;-54
2021/10/23 08:55:13;;;;;;;13.00;7.57;;;14.60;53.50;;;;;;4989571;28;20030;-54
2021/10/23 08:57:39;;;;;;;11.57;7.40;;;14.60;53.50;;;;;;4999432;28;20034;-58
2021/10/23 09:00:06;;;;;;;7.63;5.60;;;14.60;53.40;;;;;;4999458;28;20505;-56
2021/10/23 09:02:32;;;;;;;8.00;5.25;;;14.60;53.30;;;;;;4999233;28;20028;-56
2021/10/23 09:04:58;;;;;;;7.93;5.43;;;14.60;53.00;;;;;;4997665;28;20356;-55
2021/10/23 09:07:24;;;;;;;8.88;5.25;;;14.60;52.80;;;;;;4999120;28;20058;-55
2021/10/23 09:10:05;;;;;;;9.63;5.47;;;14.60;52.50;;;;;;4999067;28;20034;-53
2021/10/23 09:12:33;;;;;;;6.05;4.03;;;14.60;52.30;;;;;;4999382;28;20035;-56
2021/10/23 09:15:12;;;;;;;8.02;4.97;;;14.60;52.10;;;;;;4998995;28;20415;-53
2021/10/23 09:17:40;;;;;;;6.85;4.75;;;14.60;51.80;;;;;;4996969;28;20056;-55
2021/10/23 09:20:12;;;;;;;7.75;4.25;;;14.60;51.70;;;;;;4991674;28;20537;-55
2021/10/23 09:22:40;;;;;;;7.90;4.13;;;14.50;51.70;;;;;;4992033;28;20081;-55
2021/10/23 09:25:14;;;;;;;6.35;4.05;;;14.50;51.60;;;;;;4995226;28;20089;-55
2021/10/23 09:27:51;;;;;;;6.13;3.55;;;14.50;51.70;;;;;;4996085;28;20019;-56
2021/10/23 09:30:34;;;;;;;6.32;3.40;;;14.50;51.70;;;;;;4996014;28;20037;-56
2021/10/23 09:33:03;;;;;;;8.15;4.05;;;14.60;51.80;;;;;;4995776;28;20037;-55
2021/10/23 09:35:29;;;;;;;6.18;4.00;;;14.60;51.60;;;;;;4988460;28;20061;-53
2021/10/23 09:37:57;;;;;;;8.52;4.72;;;14.60;51.40;;;;;;4995808;28;20052;-55
2021/10/23 09:40:25;;;;;;;10.68;5.03;;;14.70;51.40;;;;;;4995491;28;20054;-54
2021/10/23 09:43:12;;;;;;;7.65;4.57;;;14.70;51.10;;;;;;4995524;28;20022;-53
2021/10/23 09:45:39;;;;;;;5.25;3.80;;;14.70;51.10;;;;;;4988232;28;20098;-55
2021/10/23 09:48:09;;;;;;;5.30;3.88;;;14.70;51.20;;;;;;4995495;28;20026;-54
2021/10/23 09:50:35;;;;;;;6.22;3.67;;;14.80;51.20;;;;;;4995701;28;20018;-54
2021/10/23 09:53:04;;;;;;;7.43;3.63;;;14.80;51.30;;;;;;4986974;28;20466;-53
2021/10/23 09:55:37;;;;;;;6.60;3.70;;;14.90;51.20;;;;;;4995608;28;20097;-55
2021/10/23 09:58:12;;;;;;;5.72;3.75;;;14.90;51.20;;;;;;4990970;28;20644;-56
2021/10/23 10:00:38;;;;;;;4.90;3.30;;;15.00;50.90;;;;;;4987818;28;20565;-56
2021/10/23 10:03:06;;;;;;;6.80;3.85;;;15.00;50.80;;;;;;4983882;28;20384;-54
2021/10/23 10:05:34;;;;;;;4.35;3.25;;;15.10;50.50;;;;;;4989739;28;20033;-54
2021/10/23 10:08:05;;;;;;;5.57;3.65;;;15.20;50.50;;;;;;4989744;28;20030;-55
2021/10/23 10:10:35;;;;;;;5.60;3.58;;;15.20;50.40;;;;;;4992617;28;20092;-56
2021/10/23 10:13:02;;;;;;;8.15;4.00;;;15.20;50.20;;;;;;4993242;28;20109;-56
2021/10/23 10:15:30;;;;;;;6.22;3.72;;;15.20;50.30;;;;;;4991389;28;20026;-53
2021/10/23 10:18:03;;;;;;;4.80;3.72;;;15.20;50.30;;;;;;4987384;28;20023;-55
2021/10/23 10:20:30;;;;;;;4.47;3.30;;;15.20;50.20;;;;;;4991439;28;20077;-54
2021/10/23 10:22:57;;;;;;;5.25;3.40;;;15.20;50.30;;;;;;4990442;28;20165;-55
2021/10/23 10:25:25;;;;;;;4.55;3.50;;;15.20;50.40;;;;;;4990662;28;20542;-56
2021/10/23 10:27:52;;;;;;;5.72;3.70;;;15.20;50.40;;;;;;4987768;28;20495;-54
2021/10/23 10:30:30;;;;;;;6.20;3.72;;;15.20;50.40;;;;;;4982065;28;20442;-55
2021/10/23 10:33:29;;;;;;;7.82;3.88;;;15.20;50.50;;;;;;4986043;28;20045;-55
2021/10/23 10:39:40;;;;;;;5.85;3.58;;;15.20;50.60;;;;;;4982777;28;20042;-53
2021/10/23 10:45:34;;;;;;;5.85;3.65;;;15.30;50.80;;;;;;5009528;28;20382;-54
2021/10/23 10:48:15;;;;;;;6.57;3.78;;;15.40;50.60;;;;;;5009797;28;20026;-54
2021/10/23 10:50:57;;;;;;;5.45;3.60;;;15.50;50.40;;;;;;5003140;28;20092;-55
2021/10/23 10:53:24;;;;;;;5.82;3.35;;;15.50;50.20;;;;;;5005321;28;20042;-54
2021/10/23 10:55:56;;;;;;;5.57;3.40;;;15.50;50.10;;;;;;5003145;28;20420;-55
2021/10/23 10:58:55;;;;;;;5.25;3.72;;;15.50;50.10;;;;;;5004115;28;20470;-56
2021/10/23 11:01:25;;;;;;;5.80;3.60;;;15.50;50.00;;;;;;5000691;28;20042;-55
2021/10/23 11:04:07;;;;;;;6.25;3.50;;;15.50;49.80;;;;;;5006527;28;20496;-53
2021/10/23 11:06:35;;;;;;;;;;;15.50;49.80;;;;;;5008659;28;20032;-56
2021/10/23 11:11:45;;;;;;;6.30;3.45;;;15.40;50.10;;;;;;5006107;28;20030;-53
2021/10/23 11:14:33;;;;;;;4.63;3.20;;;15.40;50.10;;;;;;5003407;28;20037;-53
2021/10/23 11:17:15;;;;;;;5.50;3.50;;;15.40;50.30;;;;;;5006232;28;20037;-56
2021/10/23 11:19:48;;;;;;;4.90;3.42;;;15.40;50.40;;;;;;5007531;28;20466;-53
2021/10/23 11:22:21;;;;;;;4.78;2.92;;;15.40;50.20;;;;;;5003952;28;20026;-56
2021/10/23 11:25:03;;;;;;;6.25;3.55;;;15.40;50.30;;;;;;5011863;28;20113;-55
2021/10/23 11:27:35;;;;;;;5.53;3.15;;;15.30;50.00;;;;;;5007516;28;20073;-54
2021/10/23 11:30:16;;;;;;;5.38;3.05;;;15.30;49.70;;;;;;5005869;28;20030;-56
2021/10/23 11:32:46;;;;;;;5.03;3.28;;;15.30;49.50;;;;;;5000300;28;20038;-53
2021/10/23 11:35:13;;;;;;;5.88;3.90;;;15.30;49.70;;;;;;5002479;28;20172;-55
2021/10/23 11:37:39;;;;;;;5.72;3.67;;;15.20;49.70;;;;;;5003864;28;20022;-55
2021/10/23 11:40:11;;;;;;;6.03;3.17;;;15.20;49.70;;;;;;4986947;28;20091;-56
2021/10/23 11:42:48;;;;;;;6.55;3.65;;;15.20;49.90;;;;;;4983709;28;20080;-53
2021/10/23 11:45:21;;;;;;;4.72;3.20;;;15.10;49.70;;;;;;4986592;28;20026;-56
2021/10/23 11:47:48;;;;;;;4.53;3.08;;;15.10;49.80;;;;;;4987250;28;20030;-53
2021/10/23 11:50:32;;;;;;;5.05;2.92;;;15.10;49.60;;;;;;4988701;28;20030;-54
2021/10/23 11:53:15;;;;;;;6.38;3.55;;;15.10;49.60;;;;;;4988561;28;20026;-53
2021/10/23 11:55:46;;;;;;;4.55;3.22;;;15.10;49.50;;;;;;4988351;28;20105;-56
2021/10/23 11:58:34;;;;;;;6.05;3.50;;;15.10;49.60;;;;;;4985983;28;20482;-55
2021/10/23 12:01:08;;;;;;;6.47;3.30;;;15.10;49.60;;;;;;4985772;28;20027;-54
2021/10/23 12:03:42;;;;;;;4.35;2.80;;;15.10;49.80;;;;;;4984132;28;20105;-55
2021/10/23 12:06:25;;;;;;;4.25;2.90;;;15.10;49.70;;;;;;4983275;28;20027;-55
2021/10/23 12:08:52;;;;;;;5.10;2.92;;;15.10;49.70;;;;;;4987697;28;20050;-54
2021/10/23 12:11:19;;;;;;;4.93;3.10;;;15.10;49.60;;;;;;4988124;28;20022;-55
2021/10/23 12:14:01;;;;;;;5.82;3.60;;;15.10;49.60;;;;;;4989548;28;20035;-54
2021/10/23 12:16:40;;;;;;;5.20;3.53;;;15.20;49.50;;;;;;4990129;28;20026;-54
2021/10/23 12:19:15;;;;;;;4.32;3.13;;;15.20;49.50;;;;;;4980190;28;20053;-56
2021/10/23 12:21:55;;;;;;;4.15;2.88;;;15.20;49.10;;;;;;4989599;28;20035;-56
2021/10/23 12:24:33;;;;;;;4.13;2.90;;;15.20;49.10;;;;;;4989944;28;20034;-55
2021/10/23 12:27:24;;;;;;;4.32;3.00;;;15.20;49.00;;;;;;4983561;28;20030;-56
2021/10/23 12:30:03;;;;;;;3.72;3.03;;;15.20;48.80;;;;;;4990271;28;20113;-54
2021/10/23 12:32:46;;;;;;;4.68;2.70;;;15.20;48.90;;;;;;4992033;28;20038;-55
2021/10/23 12:35:24;;;;;;;3.22;2.42;;;15.20;49.00;;;;;;4985759;28;20053;-55
2021/10/23 12:37:54;;;;;;;4.57;2.38;;;15.20;48.60;;;;;;4989040;28;20483;-56
2021/10/23 12:40:32;;;;;;;4.45;2.50;;;15.20;48.30;;;;;;4980011;28;20053;-55
2021/10/23 12:42:57;;;;;;;4.28;2.25;;;15.10;47.90;;;;;;4983212;28;20502;-53
2021/10/23 12:45:26;;;;;;;2.75;2.20;;;15.10;47.70;;;;;;4987573;28;20525;-56
2021/10/23 12:47:53;;;;;;;4.03;2.40;;;15.10;47.60;;;;;;4981077;28;20027;-55
2021/10/23 12:50:22;;;;;;;2.83;2.08;;;15.00;47.50;;;;;;4982486;28;20038;-54
2021/10/23 12:52:49;;;;;;;3.58;2.50;;;15.00;47.50;;;;;;4994706;28;20030;-54
2021/10/23 12:55:16;;;;;;;2.50;2.22;;;15.00;47.30;;;;;;4996416;28;20022;-55
2021/10/23 12:57:43;;;;;;;3.40;2.55;;;15.00;47.20;;;;;;4988975;28;20065;-54